Latest Coastal Weather Observations for Charles Point

IDD60701

Issued at 7:31 am CST Friday 30 September 2016 (issued every 10 minutes, with the page automatically refreshed every 10 minutes)

About coastal observations | Map of coastal stations | Coastal observations for NT | Marine services | Other Formats
Station Details ID: 014031 Name: CHARLES POINT Lat: -12.39 Lon: 130.63 Height: 14.0 m
Data from the previous 72 hours. | See also: Recent months for locations in Northern Territory
Date/Time
CST
Temp
°C
Wind Pressure Rain since
9am
mm
Weather Cloud Vis
km
Sea
Height
m
Swell
Dir  Spd
kts
Gust
kts
hPa Trend Height
m
Period
s
Dir
30/07:30am 28.8 WNW 1 5 1009.7 - 0.0 - - - - - - -
30/07:00am 27.9 WNW 1 2 1009.3 - 0.0 - - - - - - -
30/06:30am 28.2 NW 3 6 1008.9 - 0.0 - - - - - - -
30/06:00am 28.4 WNW 5 6 1008.6 - 0.0 - - - - - - -
30/05:30am 28.3 NW 5 8 1008.1 - 0.0 - - - - - - -
30/05:00am 28.6 NW 7 11 1007.7 - 0.0 - - - - - - -
30/04:30am 28.6 NW 7 10 1007.5 - 0.0 - - - - - - -
30/04:00am 28.7 NNW 8 11 1007.6 - 0.0 - - - - - - -
30/03:30am 28.7 NNW 7 10 1007.6 - 0.0 - - - - - - -
30/03:00am 28.6 NNW 7 11 1007.6 - 0.0 - - - - - - -
30/02:30am 28.8 NW 8 11 1008.0 - 0.0 - - - - - - -
30/02:00am 28.7 NW 8 11 1008.2 - 0.0 - - - - - - -
30/01:30am 28.5 NW 8 11 1008.4 - 0.0 - - - - - - -
30/01:00am 28.6 NW 7 9 1009.0 - 0.0 - - - - - - -
30/12:30am 28.8 NW 7 9 1009.3 - 0.0 - - - - - - -
30/12:00am 28.8 NW 7 10 1009.5 - 0.0 - - - - - - -
 
Date/Time
CST
Temp
°C
Wind Pressure Rain since
9am
mm
Weather Cloud Vis
km
Sea
Height
m
Swell
Dir  Spd
kts
Gust
kts
hPa Trend Height
m
Period
s
Dir
29/11:30pm 28.8 NW 8 11 1009.4 - 0.0 - - - - - - -
29/11:00pm 29.0 NW 8 10 1009.6 - 0.0 - - - - - - -
29/10:30pm 29.1 NW 7 11 1009.6 - 0.0 - - - - - - -
29/10:00pm 29.1 WNW 7 9 1009.5 - 0.0 - - - - - - -
29/09:30pm 29.2 WNW 7 9 1009.1 - 0.0 - - - - - - -
29/09:00pm 29.3 WNW 7 9 1009.0 - 0.0 - - - - - - -
29/08:30pm 29.4 WNW 7 10 1008.7 - 0.0 - - - - - - -
29/08:00pm 29.2 W 5 10 1008.2 - 0.0 - - - - - - -
29/07:30pm 29.4 WNW 8 12 1007.7 - 0.0 - - - - - - -
29/07:00pm 29.6 W 5 10 1007.4 - 0.0 - - - - - - -
29/06:30pm 29.9 W 6 10 1007.2 - 0.0 - - - - - - -
29/06:00pm 30.6 WNW 4 7 1007.1 - 0.0 - - - - - - -
29/05:30pm 31.3 W 4 9 1007.2 - 0.0 - - - - - - -
29/05:00pm 31.5 WNW 9 13 1006.8 - 0.0 - - - - - - -
29/04:30pm 32.0 W 7 13 1007.0 - 0.0 - - - - - - -
29/04:00pm 32.1 W 9 14 1006.7 - 0.0 - - - - - - -
29/03:30pm 32.2 W 9 15 1006.7 - 0.0 - - - - - - -
29/03:00pm 33.0 W 10 19 1006.9 - 0.0 - - - - - - -
29/02:30pm 32.2 W 7 12 1007.6 - 0.0 - - - - - - -
29/02:00pm 31.8 WNW 11 15 1008.0 - 0.0 - - - - - - -
29/01:30pm 32.7 WNW 10 14 1008.3 - 0.0 - - - - - - -
29/01:00pm 32.6 WNW 12 16 1008.6 - 0.0 - - - - - - -
29/12:30pm 32.7 WNW 13 17 1009.0 - 0.0 - - - - - - -
29/12:00pm 32.9 W 11 15 1009.5 - 0.0 - - - - - - -
29/11:30am 33.6 SW 5 10 1009.9 - 0.0 - - - - - - -
29/11:00am 32.2 WSW 5 9 1010.4 - 0.0 - - - - - - -
29/10:30am 31.4 WSW 4 7 1010.5 - 0.0 - - - - - - -
29/10:00am 32.1 W 5 9 1010.6 - 0.0 - - - - - - -
29/09:30am 31.4 WNW 6 11 1010.6 - 0.0 - - - - - - -
29/09:00am 31.1 WSW 4 7 1010.5 - 0.0 - - - - - - -
29/08:30am 30.3 W 3 6 1010.1 - 0.0 - - - - - - -
29/08:00am 29.7 WSW 3 7 1009.7 - 0.0 - - - - - - -
29/07:30am 28.3 WNW 1 3 1009.5 - 0.0 - - - - - - -
29/07:00am 26.5 WNW 2 2 1008.9 - 0.0 - - - - - - -
29/06:30am 27.0 NW 2 4 1008.6 - 0.0 - - - - - - -
29/06:00am 28.4 NNW 4 7 1008.3 - 0.0 - - - - - - -
29/05:30am 27.1 NW 1 5 1008.0 - 0.0 - - - - - - -
29/05:00am 26.6 NW 2 4 1007.8 - 0.0 - - - - - - -
29/04:30am 26.4 WNW 1 3 1007.7 - 0.0 - - - - - - -
29/04:00am 26.1 W 2 3 1007.7 - 0.0 - - - - - - -
29/03:30am 26.0 SW 1 3 1007.8 - 0.0 - - - - - - -
29/03:00am 25.9 CALM 0 2 1007.9 - 0.0 - - - - - - -
29/02:30am 25.9 CALM 0 1 1008.1 - 0.0 - - - - - - -
29/02:00am 26.2 CALM 0 0 1008.7 - 0.0 - - - - - - -
29/01:30am 26.3 SW 1 1 1009.1 - 0.0 - - - - - - -
29/01:00am 26.5 SW 2 2 1009.6 - 0.0 - - - - - - -
29/12:30am 26.7 SW 2 2 1009.8 - 0.0 - - - - - - -
29/12:00am 26.9 SW 1 3 1010.1 - 0.0 - - - - - - -
 
Date/Time
CST
Temp
°C
Wind Pressure Rain since
9am
mm
Weather Cloud Vis
km
Sea
Height
m
Swell
Dir  Spd
kts
Gust
kts
hPa Trend Height
m
Period
s
Dir
28/11:30pm 27.4 CALM 0 0 1010.1 - 0.0 - - - - - - -
28/11:00pm 27.4 SW 1 1 1010.2 - 0.0 - - - - - - -
28/10:30pm 27.8 SW 2 2 1010.3 - 0.0 - - - - - - -
28/10:00pm 28.0 SW 2 4 1010.2 - 0.0 - - - - - - -
28/09:30pm 28.1 SW 2 4 1010.0 - 0.0 - - - - - - -
28/09:00pm 28.3 SW 2 3 1009.7 - 0.0 - - - - - - -
28/08:30pm 28.5 SW 2 3 1009.5 - 0.0 - - - - - - -
28/08:00pm 28.7 WSW 3 4 1009.1 - 0.0 - - - - - - -
28/07:30pm 28.8 SW 2 5 1008.8 - 0.0 - - - - - - -
28/07:00pm 29.0 SW 2 5 1008.5 - 0.0 - - - - - - -
28/06:30pm 29.6 WSW 2 4 1008.4 - 0.0 - - - - - - -
28/06:00pm 30.1 SW 4 6 1008.1 - 0.0 - - - - - - -
28/05:30pm 31.8 SW 3 5 1007.7 - 0.0 - - - - - - -
28/05:00pm 32.5 WSW 3 7 1007.7 - 0.0 - - - - - - -
28/04:30pm 32.9 W 5 11 1007.8 - 0.0 - - - - - - -
28/04:00pm 32.7 WNW 9 13 1007.8 - 0.0 - - - - - - -
28/03:30pm 32.4 WNW 8 12 1008.2 - 0.0 - - - - - - -
28/03:00pm 32.6 WNW 9 13 1008.4 - 0.0 - - - - - - -
28/02:30pm 32.6 WNW 7 10 1009.1 - 0.0 - - - - - - -
28/02:00pm 32.3 WNW 6 10 1009.7 - 0.0 - - - - - - -
28/01:30pm 32.1 NW 7 9 1010.3 - 0.0 - - - - - - -
28/01:00pm 31.7 NW 7 10 1010.8 - 0.0 - - - - - - -
28/12:30pm 31.2 NW 7 10 1011.2 - 0.0 - - - - - - -
28/12:00pm 31.2 NW 6 9 1011.4 - 0.0 - - - - - - -
28/11:30am 31.4 NW 6 8 1011.8 - 0.0 - - - - - - -
28/11:00am 30.5 NNW 6 8 1012.0 - 0.0 - - - - - - -
28/10:30am 29.9 NNW 7 9 1012.2 - 0.0 - - - - - - -
28/10:00am 29.4 N 10 12 1012.4 - 0.0 - - - - - - -
28/09:30am 30.3 NNW 4 6 1012.4 - 0.0 - - - - - - -
28/09:00am 29.6 N 5 7 1012.1 - 0.0 - - - - - - -
28/08:30am 29.3 NNW 6 7 1011.9 - 0.0 - - - - - - -
28/08:00am 29.0 NNW 4 7 1011.4 - 0.0 - - - - - - -
28/07:30am 28.3 WNW 2 6 1011.0 - 0.0 - - - - - - -
28/07:00am 26.1 W 1 3 1010.5 - 0.0 - - - - - - -
28/06:30am 26.0 WSW 1 2 1010.0 - 0.0 - - - - - - -
28/06:00am 26.0 WSW 2 3 1009.4 - 0.0 - - - - - - -
28/05:30am 26.1 W 2 3 1009.1 - 0.0 - - - - - - -
28/05:00am 26.6 W 2 4 1009.0 - 0.0 - - - - - - -
28/04:30am 26.7 WSW 2 3 1009.0 - 0.0 - - - - - - -
28/04:00am 27.1 WSW 2 3 1008.9 - 0.0 - - - - - - -
28/03:30am 27.3 WSW 2 4 1009.0 - 0.0 - - - - - - -
28/03:00am 27.1 WSW 2 3 1009.0 - 0.0 - - - - - - -
28/02:30am 26.8 W 2 3 1009.1 - 0.0 - - - - - - -
28/02:00am 26.9 W 2 3 1009.3 - 0.0 - - - - - - -
28/01:30am 27.2 W 2 5 1009.5 - 0.0 - - - - - - -
28/01:00am 27.6 W 2 4 1009.8 - 0.0 - - - - - - -
28/12:30am 27.7 WNW 2 3 1010.2 - 0.0 - - - - - - -
28/12:00am 27.9 W 3 4 1010.5 - 0.0 - - - - - - -
 
Date/Time
CST
Temp
°C
Wind Pressure Rain since
9am
mm
Weather Cloud Vis
km
Sea
Height
m
Swell
Dir  Spd
kts
Gust
kts
hPa Trend Height
m
Period
s
Dir
27/11:30pm 27.9 W 3 5 1010.5 - 0.0 - - - - - - -
27/11:00pm 27.9 WSW 2 5 1010.7 - 0.0 - - - - - - -
27/10:30pm 28.0 W 2 3 1010.7 - 0.0 - - - - - - -
27/10:00pm 28.1 WSW 2 4 1010.6 - 0.0 - - - - - - -
27/09:30pm 28.3 WSW 2 4 1010.5 - 0.0 - - - - - - -
27/09:00pm 28.4 WSW 2 3 1010.2 - 0.0 - - - - - - -
27/08:30pm 28.7 WSW 2 3 1010.1 - 0.0 - - - - - - -
27/08:00pm 29.3 W 4 9 1009.8 - 0.0 - - - - - - -
27/07:30pm 29.4 W 4 8 1009.5 - 0.0 - - - - - - -
27/07:00pm 29.4 W 2 5 1009.1 - 0.0 - - - - - - -
27/06:30pm 30.0 W 2 5 1008.6 - 0.0 - - - - - - -
27/06:00pm 31.0 WNW 2 3 1008.4 - 0.0 - - - - - - -
27/05:30pm 31.0 WNW 3 5 1008.2 - 0.0 - - - - - - -
27/05:00pm 32.0 WNW 7 10 1008.0 - 0.0 - - - - - - -
27/04:30pm 32.1 WNW 7 10 1008.1 - 0.0 - - - - - - -
27/04:00pm 32.1 WNW 7 10 1008.0 - 0.0 - - - - - - -
27/03:30pm 32.1 WNW 8 10 1008.2 - 0.0 - - - - - - -
27/03:00pm 31.7 NW 8 11 1008.7 - 0.0 - - - - - - -
27/02:30pm 31.7 NW 8 10 1008.9 - 0.0 - - - - - - -
27/02:00pm 32.1 NW 7 10 1009.2 - 0.0 - - - - - - -
27/01:30pm 31.7 NW 8 10 1009.6 - 0.0 - - - - - - -
27/01:00pm 31.9 NW 7 9 1010.1 - 0.0 - - - - - - -
27/12:30pm 31.6 NW 7 10 1010.7 - 0.0 - - - - - - -
27/12:00pm 31.5 NW 6 9 1011.3 - 0.0 - - - - - - -
27/11:30am 31.5 NW 6 9 1011.9 - 0.0 - - - - - - -
27/11:00am 30.6 NW 5 8 1012.4 - 0.0 - - - - - - -
27/10:30am 30.3 NW 5 8 1012.6 - 0.0 - - - - - - -
27/10:00am 30.2 N 5 7 1012.8 - 0.0 - - - - - - -
27/09:30am 29.5 NNW 6 7 1012.6 - 0.0 - - - - - - -
27/09:00am 29.2 NNW 7 9 1012.6 - 0.0 - - - - - - -
27/08:30am 29.1 NNW 6 9 1012.3 - 0.0 - - - - - - -
27/08:00am 29.0 NNW 6 8 1012.1 - 0.0 - - - - - - -

Other Formats:

Comma delimited format used in spreadsheet applications
http://www.bom.gov.au/fwo/IDD60701/IDD60701.99510.axf

JavaScript Object Notation format (JSON) in row-major order
http://www.bom.gov.au/fwo/IDD60701/IDD60701.99510.json